Ahmeek, MI (49901)

12:24 AM EDT on October 21, 2014 (GMT -0400)
Hubbell (Near Hubbell Haven) | Change Station
CLOSE
Current Station
Personal Weather Station
Location: Hubbell, MI
Elevation: 730 ft
Nearby Weather Stations

Elev 730 ft 47.18 °N, 88.43 °W | Updated 3 seconds ago

Overcast
Overcast
42.1 °F
Feels Like 39 °F
N
5.6
Wind Variable Wind from ENE
Gusts 12.2 mph

Today
High -- | Low -- °F
--% Chance of Precip.
Yesterday
High -- | Low -- °F
Precip. -- in
8:20 AM 6:54 PM
Waning Crescent, 7% visible
Pressure 30.09 in
Visibility 10.0 miles
Clouds Overcast 1300 ft
Windchill 39 °F
Dew Point 38 °F
Humidity 84%
Rainfall 0.00 in
Snow Depth Not available.
UV 0 out of 12
Pollen 1.30 out of 12
Air Quality Not available.
Flu Activity Sporadic
SPECI KCMX 210402Z AUTO 03011KT 10SM OVC013 05/02 A3009 RMK AO2 T00500017

More Conditions Fewer Conditions

Pressure 30.09 in
Visibility 10.0 miles
Clouds Overcast 1300 ft
Windchill 39 °F
Dew Point 38 °F
Humidity 84%
Rainfall 0.00 in
Snow Depth Not available.
UV 0 out of 12
Pollen 1.30 out of 12
Air Quality Not available.
Flu Activity Sporadic
SPECI KCMX 210402Z AUTO 03011KT 10SM OVC013 05/02 A3009 RMK AO2 T00500017

More Conditions Fewer Conditions

10-Day Weather Forecast

Almanac

Astronomy

Oct. 21, 2014 Rise Set
Actual Time 8:20 AM EDT 6:54 PM EDT
Civil Twilight 7:49 AM EDT 7:26 PM EDT
Nautical Twilight 7:13 AM EDT 8:01 PM EDT
Astronomical Twilight 6:38 AM EDT 8:37 PM EDT
Moon 5:56 AM EDT 5:55 PM EDT
Length of Visible Light 11h 36m
Length of Day
10h 34m
Tomorrow will be 3m 13s shorter.
Waning Crescent, 7% of the Moon is Illuminated
Today
Waning Crescent
Oct 23
New
Oct 30
First Quarter
Nov 6
Full
Nov 14
Last Quarter

Today's Extremes

State Highs State Lows

Community

WunderPhotos

Upload Photos

1,763,608 photos uploaded!

Nearby

Snow Depth

Station Depth Elevation
No new snow has been reported.

Earthquake Activity

City Distance Mag. Time & Date
No recent earthquake activity has been reported nearby.
Minimum magnitude displayed is 2.5.

Coastal Water Temperatures

Place Temperature
No Stations Reporting

Nearby Weather Stations